Time;durP1;ratioP1;P1;durP2;ratioP2;P2;SDS_P1;SDS_P2;PMS_P1;PMS_P2;Temp;Humidity;BMP_temperature;BMP_pressure;BME280_temperature;BME280_humidity;BME280_pressure;Samples;Min_cycle;Max_cycle;Signal;HPM_P1;HPM_P2
2022/04/17 00:08:24;;;;;;;7.10;2.70;;;;;;;7.02;54.83;101749.00;20970814;28;20490;-66
2022/04/17 00:18:26;;;;;;;5.53;2.58;;;;;;;7.06;54.62;101749.09;20971394;28;20041;-66
2022/04/17 00:28:28;;;;;;;5.22;2.80;;;;;;;6.88;55.72;101743.50;20970575;28;20064;-66
2022/04/17 00:38:29;;;;;;;5.50;3.00;;;;;;;6.86;55.82;101740.88;20970240;28;20087;-66
2022/04/17 00:48:30;;;;;;;5.70;2.80;;;;;;;6.64;56.93;101723.06;20969874;28;20048;-66
2022/04/17 00:58:33;;;;;;;7.38;2.80;;;;;;;6.51;58.13;101713.22;20969545;28;20115;-66
2022/04/17 01:08:41;;;;;;;9.68;2.97;;;;;;;6.34;59.39;101707.66;20971078;28;20486;-67
2022/04/17 01:19:03;;;;;;;9.02;3.28;;;;;;;6.18;60.80;101706.44;20980965;28;20072;-66
2022/04/17 01:29:05;;;;;;;6.38;2.70;;;;;;;6.07;61.82;101700.09;20982354;28;20049;-66
2022/04/17 01:39:06;;;;;;;7.63;3.20;;;;;;;5.97;61.98;101682.50;20981212;28;20036;-66
2022/04/17 01:49:08;;;;;;;7.50;3.60;;;;;;;6.06;61.26;101682.72;20981196;28;20048;-66
2022/04/17 01:59:11;;;;;;;7.38;3.70;;;;;;;5.94;62.49;101682.44;20979888;28;20045;-67
2022/04/17 02:09:14;;;;;;;6.70;3.53;;;;;;;5.81;62.74;101676.91;20979130;28;20045;-67
2022/04/17 02:19:16;;;;;;;7.32;3.30;;;;;;;5.73;63.27;101673.25;20977198;28;20444;-66
2022/04/17 02:29:17;;;;;;;6.63;3.50;;;;;;;5.54;63.72;101671.91;20978277;28;20041;-66
2022/04/17 02:39:19;;;;;;;8.23;3.65;;;;;;;5.44;63.59;101679.44;20974097;28;20055;-66
2022/04/17 02:49:20;;;;;;;5.68;2.92;;;;;;;5.40;64.62;101657.69;20976100;28;20445;-66
2022/04/17 02:59:22;;;;;;;5.70;2.97;;;;;;;5.38;64.20;101654.19;20975861;28;20094;-66
2022/04/17 03:09:23;;;;;;;8.10;3.55;;;;;;;5.24;65.06;101639.97;20971832;28;20072;-66
2022/04/17 03:19:25;;;;;;;7.00;3.47;;;;;;;5.21;64.70;101643.34;20972799;28;20037;-66
2022/04/17 03:29:26;;;;;;;8.40;3.42;;;;;;;5.01;66.17;101648.03;20973584;28;20497;-66
2022/04/17 03:39:28;;;;;;;7.45;4.15;;;;;;;4.85;66.37;101654.53;20971746;28;20063;-66
2022/04/17 03:49:29;;;;;;;6.80;3.58;;;;;;;4.85;66.16;101651.94;20972465;28;20048;-66
2022/04/17 03:59:32;;;;;;;8.18;3.35;;;;;;;4.89;64.94;101656.38;20971986;28;20048;-66
2022/04/17 04:09:33;;;;;;;6.75;3.45;;;;;;;4.82;66.42;101645.75;20970474;28;20493;-66
2022/04/17 04:19:35;;;;;;;6.63;3.70;;;;;;;4.68;68.77;101629.81;20970711;28;20110;-66
2022/04/17 04:29:37;;;;;;;6.30;3.70;;;;;;;4.73;67.30;101628.22;20970785;28;20045;-66
2022/04/17 04:39:39;;;;;;;6.90;3.70;;;;;;;4.71;67.48;101614.34;20966689;28;20421;-67
2022/04/17 04:49:40;;;;;;;6.40;3.75;;;;;;;4.58;69.08;101625.19;20981900;28;20048;-68
2022/04/17 04:59:42;;;;;;;6.80;3.60;;;;;;;4.56;69.48;101634.66;20986171;28;20048;-66
2022/04/17 05:09:44;;;;;;;6.32;3.78;;;;;;;4.72;68.05;101616.09;20983435;28;20048;-67
2022/04/17 05:19:49;;;;;;;;;;;;;;;4.91;66.83;101630.44;20983929;28;20527;-67
2022/04/17 05:29:51;;;;;;;8.60;3.80;;;;;;;4.91;66.67;101650.34;20982946;28;19920;-67
2022/04/17 05:39:53;;;;;;;8.93;3.97;;;;;;;4.99;66.64;101661.81;20981306;28;20106;-66
2022/04/17 05:49:58;;;;;;;7.18;3.70;;;;;;;5.04;65.97;101655.03;20979170;28;20056;-67
2022/04/17 06:00:08;;;;;;;8.10;4.07;;;;;;;5.24;65.46;101643.44;20978820;28;20040;-66
2022/04/17 06:10:13;;;;;;;7.27;3.93;;;;;;;5.46;65.08;101646.56;20979405;28;20048;-66
2022/04/17 06:20:19;;;;;;;8.45;4.00;;;;;;;5.76;63.46;101657.75;20978292;28;20559;-66
2022/04/17 06:30:23;;;;;;;9.05;4.60;;;;;;;5.85;63.28;101650.16;20977597;28;20045;-66
2022/04/17 06:40:31;;;;;;;8.45;4.30;;;;;;;6.20;61.31;101639.72;20977461;28;20048;-66
2022/04/17 06:50:35;;;;;;;10.27;4.65;;;;;;;6.47;60.23;101630.72;20971177;28;20551;-66
2022/04/17 07:00:40;;;;;;;6.90;4.07;;;;;;;6.70;58.99;101611.25;20971713;28;20089;-65
2022/04/17 07:10:43;;;;;;;7.97;3.90;;;;;;;7.05;57.56;101604.13;20966744;28;20094;-66
2022/04/17 07:20:48;;;;;;;8.02;4.03;;;;;;;7.32;55.62;101603.69;20967523;28;20044;-66
2022/04/17 07:30:50;;;;;;;10.38;4.30;;;;;;;7.60;54.37;101583.31;20966319;28;20052;-66
2022/04/17 07:40:53;;;;;;;7.18;3.50;;;;;;;7.96;53.01;101586.47;20966870;28;20044;-65
2022/04/17 07:51:00;;;;;;;7.18;3.35;;;;;;;8.28;49.69;101575.56;20966603;28;20420;-64
2022/04/17 08:01:27;;;;;;;6.65;3.50;;;;;;;8.70;49.53;101558.69;20968756;28;20044;-65
2022/04/17 08:11:29;;;;;;;6.70;3.15;;;;;;;8.94;47.69;101558.94;20968762;28;20044;-68
2022/04/17 08:21:37;;;;;;;7.00;3.40;;;;;;;9.28;47.87;101546.16;20972249;28;20047;-66
2022/04/17 08:31:43;;;;;;;5.00;2.80;;;;;;;9.68;45.02;101538.63;20982055;28;20101;-66
2022/04/17 08:41:47;;;;;;;5.70;2.92;;;;;;;9.91;46.66;101510.81;20982851;28;20135;-66
2022/04/17 08:52:15;;;;;;;6.43;3.15;;;;;;;10.36;44.70;101496.22;20978931;28;20045;-66
2022/04/17 09:02:40;;;;;;;8.40;2.70;;;;;;;10.77;43.69;101463.97;20979618;28;20269;-66
2022/04/17 09:13:05;;;;;;;6.17;3.00;;;;;;;11.09;42.84;101460.47;20980175;28;20040;-66
2022/04/17 09:23:33;;;;;;;9.20;2.38;;;;;;;11.69;39.46;101443.75;20977048;28;20068;-67
2022/04/17 09:45:24;;;;;;;4.60;2.13;;;;;;;12.28;37.13;101429.47;20911241;28;20173;-80
2022/04/17 09:55:52;;;;;;;4.45;1.92;;;;;;;12.84;37.79;101422.06;20923221;28;20127;-80
2022/04/17 10:06:08;;;;;;;6.88;2.25;;;;;;;12.65;36.34;101407.31;20910225;28;20056;-80
2022/04/17 10:16:21;;;;;;;7.28;2.53;;;;;;;12.67;35.28;101395.91;20922082;28;20431;-81
2022/04/17 10:26:47;;;;;;;5.28;2.35;;;;;;;12.95;35.06;101404.44;20913334;28;20044;-80
2022/04/17 10:37:36;;;;;;;5.05;2.35;;;;;;;13.22;35.42;101390.19;20912320;28;20052;-80
2022/04/17 10:47:37;;;;;;;5.95;2.67;;;;;;;13.35;34.63;101370.72;20918538;28;20045;-80
2022/04/17 10:57:49;;;;;;;5.68;2.20;;;;;;;13.87;33.07;101348.13;20908824;28;20049;-80
2022/04/17 11:08:17;;;;;;;7.45;1.83;;;;;;;14.31;34.48;101328.16;20948441;28;20053;-80
2022/04/17 11:18:23;;;;;;;4.85;1.88;;;;;;;14.17;32.57;101316.97;20938582;28;20044;-81
2022/04/17 11:28:34;;;;;;;5.65;1.70;;;;;;;14.29;33.82;101308.88;20933339;28;20099;-80
2022/04/17 11:38:42;;;;;;;4.43;1.73;;;;;;;14.28;32.14;101301.88;20926418;28;20128;-80
2022/04/17 11:48:46;;;;;;;3.95;1.40;;;;;;;14.36;30.99;101274.47;20927903;28;20048;-80
2022/04/17 11:58:48;;;;;;;4.32;1.90;;;;;;;14.60;31.57;101262.66;20921345;28;20049;-80
2022/04/17 12:08:49;;;;;;;4.07;1.70;;;;;;;14.55;32.36;101256.63;20937993;28;20059;-80
2022/04/17 12:18:54;;;;;;;2.95;1.63;;;;;;;14.71;31.60;101237.88;20927928;28;20474;-80
2022/04/17 12:28:56;;;;;;;;;;;;;;;14.86;31.45;101222.63;20938510;28;20049;-80
2022/04/17 12:38:57;;;;;;;3.28;1.60;;;;;;;14.74;31.57;101206.19;20913988;28;19929;-80
2022/04/17 12:49:10;;;;;;;3.28;1.52;;;;;;;14.92;30.94;101187.34;20929844;28;20076;-79
2022/04/17 12:59:12;;;;;;;3.58;1.20;;;;;;;15.18;28.44;101162.19;20920330;28;20122;-79
2022/04/17 13:09:18;;;;;;;3.60;1.30;;;;;;;15.24;27.79;101143.59;20916117;28;20091;-79
2022/04/17 13:19:23;;;;;;;4.00;1.40;;;;;;;15.44;28.30;101143.13;20923705;28;20041;-80
2022/04/17 13:29:25;;;;;;;3.60;1.53;;;;;;;15.47;27.75;101109.56;20933527;28;20493;-79
2022/04/17 13:39:26;;;;;;;2.70;1.15;;;;;;;15.38;26.62;101096.63;20962541;28;20713;-80
2022/04/17 13:49:28;;;;;;;4.05;1.38;;;;;;;15.38;27.20;101083.44;20928900;28;20102;-79
2022/04/17 13:59:30;;;;;;;4.93;1.20;;;;;;;15.34;26.87;101055.41;20943034;28;20475;-80
2022/04/17 14:09:32;;;;;;;3.13;1.35;;;;;;;15.45;26.70;101042.78;20942133;28;20044;-79
2022/04/17 14:19:34;;;;;;;5.78;2.03;;;;;;;15.81;23.80;101037.47;20943398;28;20128;-80
2022/04/17 14:29:36;;;;;;;6.45;2.10;;;;;;;15.80;27.75;101017.25;20933212;28;20045;-79
2022/04/17 14:39:38;;;;;;;2.40;1.30;;;;;;;15.93;24.67;101002.81;20926648;28;20484;-79
2022/04/17 14:49:42;;;;;;;4.30;1.08;;;;;;;15.52;26.99;100996.88;20884241;28;20095;-80
2022/04/17 14:59:44;;;;;;;3.28;1.42;;;;;;;15.50;24.43;100977.56;20911731;28;20494;-80
2022/04/17 15:09:45;;;;;;;3.85;1.60;;;;;;;15.81;25.86;100961.78;20923969;28;20417;-79
2022/04/17 15:19:47;;;;;;;2.85;1.23;;;;;;;15.78;26.38;100951.28;20935877;22;20095;-69
2022/04/17 15:29:48;;;;;;;2.80;1.33;;;;;;;15.60;25.75;100942.06;20900968;28;20531;-70
2022/04/17 15:39:50;;;;;;;4.60;1.30;;;;;;;15.60;26.31;100914.81;20902074;28;20068;-69
2022/04/17 15:49:51;;;;;;;4.00;1.50;;;;;;;15.53;27.25;100918.56;20908921;28;20508;-69
2022/04/17 15:59:53;;;;;;;5.35;1.40;;;;;;;15.86;27.09;100912.34;20909637;28;20049;-68
2022/04/17 16:09:54;;;;;;;2.55;1.40;;;;;;;15.78;26.29;100902.91;20898707;28;20052;-72
2022/04/17 16:19:57;;;;;;;4.88;1.67;;;;;;;15.75;28.65;100897.72;20910321;28;20045;-69
2022/04/17 16:29:58;;;;;;;4.28;1.85;;;;;;;15.53;29.05;100890.38;20904633;28;20581;-66
2022/04/17 16:40:07;;;;;;;4.68;1.85;;;;;;;15.85;27.69;100886.81;20904083;28;20417;-70
2022/04/17 16:50:08;;;;;;;4.97;1.50;;;;;;;15.96;28.40;100886.53;20927133;28;20082;-65
2022/04/17 17:00:10;;;;;;;6.95;4.47;;;;;;;15.82;28.24;100878.16;20915964;28;20068;-65
2022/04/17 17:10:12;;;;;;;4.32;1.70;;;;;;;15.62;29.57;100889.25;20923099;28;20052;-66
2022/04/17 17:20:18;;;;;;;4.88;1.60;;;;;;;15.47;29.18;100879.97;20921916;28;20554;-65
2022/04/17 17:30:20;;;;;;;4.40;2.00;;;;;;;15.14;29.19;100874.75;20908535;28;20045;-65
2022/04/17 17:40:21;;;;;;;6.97;2.72;;;;;;;14.87;29.26;100870.19;20927237;28;20056;-64
2022/04/17 17:50:23;;;;;;;8.38;2.20;;;;;;;14.49;30.67;100869.38;20918062;28;20114;-65
2022/04/17 18:00:25;;;;;;;5.00;2.10;;;;;;;14.19;31.24;100870.94;20911801;28;20049;-64
2022/04/17 18:20:49;;;;;;;6.20;2.78;;;;;;;13.51;32.66;100871.56;20916750;28;20053;-65
2022/04/17 18:30:50;;;;;;;5.43;1.83;;;;;;;13.28;33.91;100884.28;20911292;28;20486;-64
2022/04/17 18:40:53;;;;;;;4.97;2.22;;;;;;;13.06;34.75;100889.91;20919135;28;20056;-64
2022/04/17 18:50:54;;;;;;;6.22;2.80;;;;;;;12.91;34.78;100890.16;20905477;28;20455;-64
2022/04/17 19:00:56;;;;;;;6.40;2.00;;;;;;;12.66;35.51;100894.13;20917358;28;20048;-64
2022/04/17 19:21:18;;;;;;;4.38;2.20;;;;;;;12.31;35.86;100891.16;20908388;28;20037;-64
2022/04/17 19:41:40;;;;;;;6.55;1.90;;;;;;;12.02;36.46;100907.28;20906604;28;20040;-63
2022/04/17 19:51:42;;;;;;;4.57;1.88;;;;;;;11.91;36.67;100903.09;20902213;28;20099;-64
2022/04/17 20:01:43;;;;;;;6.57;2.45;;;;;;;11.72;37.25;100895.41;20911186;28;20101;-64
2022/04/17 20:11:45;;;;;;;5.65;2.20;;;;;;;11.56;38.41;100904.38;20904446;28;20457;-64
2022/04/17 20:21:46;;;;;;;5.82;2.30;;;;;;;11.26;38.75;100898.59;20922565;28;20099;-65
2022/04/17 20:31:48;;;;;;;7.22;2.40;;;;;;;10.92;40.92;100892.81;20925483;28;20492;-63
2022/04/17 20:41:50;;;;;;;4.90;2.15;;;;;;;10.70;40.92;100889.50;20918233;28;20147;-65
2022/04/17 20:51:53;;;;;;;5.18;2.33;;;;;;;10.49;41.99;100872.22;20926908;28;20066;-65
2022/04/17 21:01:55;;;;;;;5.22;2.40;;;;;;;10.48;41.74;100878.31;21089323;22;20067;-74
2022/04/17 21:11:56;;;;;;;4.95;1.98;;;;;;;10.15;42.21;100868.06;21012023;28;20052;-72
2022/04/17 21:21:59;;;;;;;5.72;2.28;;;;;;;9.92;43.52;100863.84;21019946;28;20045;-72
2022/04/17 21:32:01;;;;;;;4.97;1.92;;;;;;;9.76;44.26;100862.19;21028915;28;20048;-71
2022/04/17 21:42:03;;;;;;;5.05;2.35;;;;;;;9.52;45.13;100861.41;21018498;28;20044;-72
2022/04/17 21:52:05;;;;;;;4.43;2.00;;;;;;;9.36;46.51;100854.50;21022413;28;20484;-73
2022/04/17 22:12:29;;;;;;;5.95;2.75;;;;;;;8.88;48.24;100848.53;21018723;28;20053;-72
2022/04/17 22:22:30;;;;;;;5.47;2.10;;;;;;;8.78;48.33;100841.59;21023756;28;20051;-72
2022/04/17 22:32:32;;;;;;;6.13;2.38;;;;;;;8.66;49.26;100841.59;21018882;28;20464;-72
2022/04/17 22:42:34;;;;;;;5.63;2.33;;;;;;;8.64;49.41;100838.13;21020062;28;20036;-73
2022/04/17 22:52:41;;;;;;;9.83;2.70;;;;;;;8.22;52.27;100840.69;21025718;28;20131;-72
2022/04/17 23:02:44;;;;;;;5.83;2.30;;;;;;;8.05;52.93;100842.44;21016169;28;20307;-73
2022/04/17 23:12:46;;;;;;;5.38;2.30;;;;;;;7.64;55.25;100840.56;21016734;28;20045;-73
2022/04/17 23:22:48;;;;;;;6.70;2.50;;;;;;;7.31;57.43;100838.69;21024435;28;20100;-73
2022/04/17 23:32:50;;;;;;;6.13;3.45;;;;;;;7.03;57.73;100847.22;21009514;28;20052;-73
2022/04/17 23:42:53;;;;;;;5.72;2.30;;;;;;;6.77;58.35;100841.88;21018753;28;20542;-73
2022/04/17 23:52:55;;;;;;;8.57;2.67;;;;;;;6.98;56.77;100830.72;21016639;28;20048;-71
